Bosporus — V2QY — position and weather

sailwx.info

Track history (hours):
 
Tides and Currents Weather Stations Pressure Air Temp Water Temp Dewpoint Dewpoint Depression Visibility Wind Speed Wind Dir Waves Ship Positions

Bosporus

Last reported at 2014-Nov-28 23:31 UTC. Time now 2014-Nov-29 00:09 UTC.
Position N 43°26' E 004°53'.

Length 100 m; draft 4.2 m.

Type: Cargo ship. MMSI: 304010802.

Date/timePositionNaut miles runAvg speedWind from/ knotsBaromVisibWave heightAir tempDewpointWater temp
2014-Nov-28 23:31N 43°26' E 004°53'0 0.0
2014-Nov-28 22:28N 43°26' E 004°53'0 0.0
2014-Nov-28 21:31N 43°26' E 004°53'0 0.0
2014-Nov-28 20:16N 43°26' E 004°53'0 0.0
2014-Nov-28 19:28N 43°26' E 004°53'0 0.0
2014-Nov-28 18:22N 43°26' E 004°53'0 0.0
2014-Nov-28 17:16N 43°26' E 004°53'0 0.0
2014-Nov-28 16:31N 43°26' E 004°53'0 0.0
2014-Nov-28 15:31N 43°26' E 004°53'0 0.0
2014-Nov-28 14:31N 43°26' E 004°53'0 0.0
2014-Nov-28 13:28N 43°26' E 004°53'0 0.0
2014-Nov-28 12:31N 43°26' E 004°53'0 0.0
2014-Nov-28 11:31N 43°26' E 004°53'0 0.0
2014-Nov-28 10:28N 43°26' E 004°53'0 0.0
2014-Nov-28 09:31N 43°26' E 004°53'0 0.0
2014-Nov-28 08:31N 43°26' E 004°53'0 0.0
2014-Nov-28 07:28N 43°26' E 004°53'0 0.0
2014-Nov-28 06:31N 43°26' E 004°53'0 0.0
2014-Nov-28 05:31N 43°26' E 004°53'0 0.0
2014-Nov-28 04:31N 43°26' E 004°53'0 0.0
2014-Nov-28 03:28N 43°26' E 004°53'0 0.0
2014-Nov-28 02:31N 43°26' E 004°53'0 0.0
2014-Nov-28 01:28N 43°26' E 004°53'0 0.0
2014-Nov-28 00:31N 43°26' E 004°53'0 0.0
2014-Nov-27 23:25N 43°26' E 004°53'0 0.0
2014-Nov-27 22:28N 43°26' E 004°53'0 0.0
2014-Nov-27 21:31N 43°26' E 004°53'6 5.7
2014-Nov-27 20:33N 43°21' E 004°58'9 9.1
2014-Nov-27 19:32N 43°13' E 005°03'17 8.3
2014-Nov-27 17:29N 43°00' E 004°47'10 9.9
2014-Nov-27 16:28N 42°53' E 004°38'2010.5
2014-Nov-27 14:31N 42°37' E 004°20'1010.3
2014-Nov-27 13:33N 42°29' E 004°12'1110.7
2014-Nov-27 12:33N 42°21' E 004°02'1111.0
2014-Nov-27 11:33N 42°12' E 003°53'1110.8
2014-Nov-27 10:33N 42°04' E 003°43'1010.4
2014-Nov-27 09:33N 41°58' E 003°32'1010.0
2014-Nov-27 08:33N 41°52' E 003°21'1410.2
2014-Nov-27 07:12N 41°44' E 003°06'2010.5
2014-Nov-27 05:16N 41°31' E 002°46'  
2014-Nov-24 19:09N 41°42' E 003°02'811.0
2014-Nov-24 18:28N 41°46' E 003°10'4510.2
2014-Nov-24 14:05N 42°17' E 003°53'1010.1
2014-Nov-24 13:08N 42°24' E 004°03'12 7.2
2014-Nov-24 11:29N 42°34' E 003°54'9 7.9
2014-Nov-24 10:18N 42°42' E 003°48'20 9.4
2014-Nov-24 08:12N 42°55' E 004°08'10 9.4
2014-Nov-24 07:06N 42°59' E 004°21'5 8.8
2014-Nov-24 06:32N 43°01' E 004°27'25 8.4
2014-Nov-24 03:33N 43°15' E 004°55'8 8.0
2014-Nov-24 02:34N 43°23' E 004°56'3 2.7
2014-Nov-24 01:31N 43°26' E 004°54'0 0.0
2014-Nov-24 00:31N 43°26' E 004°54'0 0.0
2014-Nov-23 23:31N 43°26' E 004°54'0 0.0
2014-Nov-23 22:31N 43°26' E 004°54'0 0.0
2014-Nov-23 21:31N 43°26' E 004°54'0 0.0
2014-Nov-23 20:31N 43°26' E 004°54'0 0.0
2014-Nov-23 19:31N 43°26' E 004°54'0 0.0
2014-Nov-23 18:28N 43°26' E 004°54'0 0.0
2014-Nov-23 17:31N 43°26' E 004°54'0 0.0
2014-Nov-23 16:31N 43°26' E 004°54'0 0.0
2014-Nov-23 15:31N 43°26' E 004°54'0 0.0
2014-Nov-23 14:31N 43°26' E 004°54'0 0.0
2014-Nov-23 13:25N 43°26' E 004°54'0 0.0
2014-Nov-23 12:28N 43°26' E 004°54'0 0.0
2014-Nov-23 11:28N 43°26' E 004°54'0 0.0
2014-Nov-23 10:31N 43°26' E 004°54'0 0.0
2014-Nov-23 09:31N 43°26' E 004°54'0 0.0
2014-Nov-23 08:31N 43°26' E 004°54'0 0.1
2014-Nov-23 07:33N 43°26' E 004°54'2 2.4
2014-Nov-23 06:31N 43°25' E 004°57'0 0.0
2014-Nov-23 05:31N 43°25' E 004°57'0 0.0
2014-Nov-23 04:31N 43°25' E 004°57'0 0.0
2014-Nov-23 03:31N 43°25' E 004°57'0 0.0
2014-Nov-23 02:31N 43°25' E 004°57'0 0.0
2014-Nov-23 01:31N 43°25' E 004°57'0 0.0
2014-Nov-23 00:31N 43°25' E 004°57'0 0.0
2014-Nov-22 23:31N 43°25' E 004°57'0 0.0
2014-Nov-22 22:31N 43°25' E 004°57'0 0.0
2014-Nov-22 21:31N 43°25' E 004°57'0 0.1
2014-Nov-22 20:25N 43°25' E 004°57'0 0.0
2014-Nov-22 19:19N 43°25' E 004°57'0 0.0
2014-Nov-22 18:28N 43°25' E 004°57'0 0.1
2014-Nov-22 17:28N 43°25' E 004°57'0 0.0
2014-Nov-22 16:31N 43°25' E 004°57'0 0.0
2014-Nov-22 15:31N 43°25' E 004°57'0 0.0
2014-Nov-22 14:31N 43°25' E 004°57'0 0.0
2014-Nov-22 13:31N 43°25' E 004°57'0 0.0
2014-Nov-22 12:31N 43°25' E 004°57'0 0.0
2014-Nov-22 11:31N 43°25' E 004°57'0 0.0
2014-Nov-22 10:31N 43°25' E 004°57'0 0.0
2014-Nov-22 09:31N 43°25' E 004°57'0 0.0
2014-Nov-22 08:31N 43°25' E 004°57'0 0.0
2014-Nov-22 07:31N 43°25' E 004°57'0 0.0
2014-Nov-22 06:31N 43°25' E 004°57'0 0.0
2014-Nov-22 05:31N 43°25' E 004°57'0 0.0
2014-Nov-22 04:31N 43°25' E 004°57'0 0.0
2014-Nov-22 03:31N 43°25' E 004°57'0 0.0
2014-Nov-22 02:31N 43°25' E 004°57'0 0.0
2014-Nov-22 01:31N 43°25' E 004°57'0 0.0
2014-Nov-22 00:31N 43°25' E 004°57'0 0.0
2014-Nov-21 23:31N 43°25' E 004°57'0 0.0
2014-Nov-21 22:31N 43°25' E 004°57'0 0.0
2014-Nov-21 21:28N 43°25' E 004°57'0 0.0
2014-Nov-21 20:31N 43°25' E 004°57'0 0.0
2014-Nov-21 19:31N 43°25' E 004°57'1 1.3
2014-Nov-21 18:33N 43°23' E 004°57'1010.4
2014-Nov-21 17:33N 43°14' E 005°02'1210.1
2014-Nov-21 16:19N 43°03' E 004°52'1210.1
2014-Nov-21 15:09N 42°55' E 004°41'2810.5
2014-Nov-21 12:32N 42°35' E 004°14'10 9.7
2014-Nov-21 11:28N 42°28' E 004°04'1211.4
2014-Nov-21 10:25N 42°19' E 003°53'1210.0
2014-Nov-21 09:15N 42°11' E 003°43'910.5
2014-Nov-21 08:25N 42°04' E 003°35'  
Track history (hours):
 
Tides and Currents Weather Stations Pressure Air Temp Water Temp Dewpoint Dewpoint Depression Visibility Wind Speed Wind Dir Waves Ship Positions

Bosporus

Last reported at 2014-Nov-28 23:31 UTC. Time now 2014-Nov-29 00:09 UTC.
Position N 43°26' E 004°53'.

Length 100 m; draft 4.2 m.

Type: Cargo ship. MMSI: 304010802.

Date/timePositionNaut miles runAvg speedWind from/ knotsBaromVisibWave heightAir tempDewpointWater temp
2014-Nov-28 23:31N 43°26' E 004°53'0 0.0
2014-Nov-28 22:28N 43°26' E 004°53'0 0.0
2014-Nov-28 21:31N 43°26' E 004°53'0 0.0
2014-Nov-28 20:16N 43°26' E 004°53'0 0.0
2014-Nov-28 19:28N 43°26' E 004°53'0 0.0
2014-Nov-28 18:22N 43°26' E 004°53'0 0.0
2014-Nov-28 17:16N 43°26' E 004°53'0 0.0
2014-Nov-28 16:31N 43°26' E 004°53'0 0.0
2014-Nov-28 15:31N 43°26' E 004°53'0 0.0
2014-Nov-28 14:31N 43°26' E 004°53'0 0.0
2014-Nov-28 13:28N 43°26' E 004°53'0 0.0
2014-Nov-28 12:31N 43°26' E 004°53'0 0.0
2014-Nov-28 11:31N 43°26' E 004°53'0 0.0
2014-Nov-28 10:28N 43°26' E 004°53'0 0.0
2014-Nov-28 09:31N 43°26' E 004°53'0 0.0
2014-Nov-28 08:31N 43°26' E 004°53'0 0.0
2014-Nov-28 07:28N 43°26' E 004°53'0 0.0
2014-Nov-28 06:31N 43°26' E 004°53'0 0.0
2014-Nov-28 05:31N 43°26' E 004°53'0 0.0
2014-Nov-28 04:31N 43°26' E 004°53'0 0.0
2014-Nov-28 03:28N 43°26' E 004°53'0 0.0
2014-Nov-28 02:31N 43°26' E 004°53'0 0.0
2014-Nov-28 01:28N 43°26' E 004°53'0 0.0
2014-Nov-28 00:31N 43°26' E 004°53'0 0.0
2014-Nov-27 23:25N 43°26' E 004°53'0 0.0
2014-Nov-27 22:28N 43°26' E 004°53'0 0.0
2014-Nov-27 21:31N 43°26' E 004°53'6 5.7
2014-Nov-27 20:33N 43°21' E 004°58'9 9.1
2014-Nov-27 19:32N 43°13' E 005°03'17 8.3
2014-Nov-27 17:29N 43°00' E 004°47'10 9.9
2014-Nov-27 16:28N 42°53' E 004°38'2010.5
2014-Nov-27 14:31N 42°37' E 004°20'1010.3
2014-Nov-27 13:33N 42°29' E 004°12'1110.7
2014-Nov-27 12:33N 42°21' E 004°02'1111.0
2014-Nov-27 11:33N 42°12' E 003°53'1110.8
2014-Nov-27 10:33N 42°04' E 003°43'1010.4
2014-Nov-27 09:33N 41°58' E 003°32'1010.0
2014-Nov-27 08:33N 41°52' E 003°21'1410.2
2014-Nov-27 07:12N 41°44' E 003°06'2010.5
2014-Nov-27 05:16N 41°31' E 002°46'  
2014-Nov-24 19:09N 41°42' E 003°02'811.0
2014-Nov-24 18:28N 41°46' E 003°10'4510.2
2014-Nov-24 14:05N 42°17' E 003°53'1010.1
2014-Nov-24 13:08N 42°24' E 004°03'12 7.2
2014-Nov-24 11:29N 42°34' E 003°54'9 7.9
2014-Nov-24 10:18N 42°42' E 003°48'20 9.4
2014-Nov-24 08:12N 42°55' E 004°08'10 9.4
2014-Nov-24 07:06N 42°59' E 004°21'5 8.8
2014-Nov-24 06:32N 43°01' E 004°27'25 8.4
2014-Nov-24 03:33N 43°15' E 004°55'8 8.0
2014-Nov-24 02:34N 43°23' E 004°56'3 2.7
2014-Nov-24 01:31N 43°26' E 004°54'0 0.0
2014-Nov-24 00:31N 43°26' E 004°54'0 0.0
2014-Nov-23 23:31N 43°26' E 004°54'0 0.0
2014-Nov-23 22:31N 43°26' E 004°54'0 0.0
2014-Nov-23 21:31N 43°26' E 004°54'0 0.0
2014-Nov-23 20:31N 43°26' E 004°54'0 0.0
2014-Nov-23 19:31N 43°26' E 004°54'0 0.0
2014-Nov-23 18:28N 43°26' E 004°54'0 0.0
2014-Nov-23 17:31N 43°26' E 004°54'0 0.0
2014-Nov-23 16:31N 43°26' E 004°54'0 0.0
2014-Nov-23 15:31N 43°26' E 004°54'0 0.0
2014-Nov-23 14:31N 43°26' E 004°54'0 0.0
2014-Nov-23 13:25N 43°26' E 004°54'0 0.0
2014-Nov-23 12:28N 43°26' E 004°54'0 0.0
2014-Nov-23 11:28N 43°26' E 004°54'0 0.0
2014-Nov-23 10:31N 43°26' E 004°54'0 0.0
2014-Nov-23 09:31N 43°26' E 004°54'0 0.0
2014-Nov-23 08:31N 43°26' E 004°54'0 0.1
2014-Nov-23 07:33N 43°26' E 004°54'2 2.4
2014-Nov-23 06:31N 43°25' E 004°57'0 0.0
2014-Nov-23 05:31N 43°25' E 004°57'0 0.0
2014-Nov-23 04:31N 43°25' E 004°57'0 0.0
2014-Nov-23 03:31N 43°25' E 004°57'0 0.0
2014-Nov-23 02:31N 43°25' E 004°57'0 0.0
2014-Nov-23 01:31N 43°25' E 004°57'0 0.0
2014-Nov-23 00:31N 43°25' E 004°57'0 0.0
2014-Nov-22 23:31N 43°25' E 004°57'0 0.0
2014-Nov-22 22:31N 43°25' E 004°57'0 0.0
2014-Nov-22 21:31N 43°25' E 004°57'0 0.1
2014-Nov-22 20:25N 43°25' E 004°57'0 0.0
2014-Nov-22 19:19N 43°25' E 004°57'0 0.0
2014-Nov-22 18:28N 43°25' E 004°57'0 0.1
2014-Nov-22 17:28N 43°25' E 004°57'0 0.0
2014-Nov-22 16:31N 43°25' E 004°57'0 0.0
2014-Nov-22 15:31N 43°25' E 004°57'0 0.0
2014-Nov-22 14:31N 43°25' E 004°57'0 0.0
2014-Nov-22 13:31N 43°25' E 004°57'0 0.0
2014-Nov-22 12:31N 43°25' E 004°57'0 0.0
2014-Nov-22 11:31N 43°25' E 004°57'0 0.0
2014-Nov-22 10:31N 43°25' E 004°57'0 0.0
2014-Nov-22 09:31N 43°25' E 004°57'0 0.0
2014-Nov-22 08:31N 43°25' E 004°57'0 0.0
2014-Nov-22 07:31N 43°25' E 004°57'0 0.0
2014-Nov-22 06:31N 43°25' E 004°57'0 0.0
2014-Nov-22 05:31N 43°25' E 004°57'0 0.0
2014-Nov-22 04:31N 43°25' E 004°57'0 0.0
2014-Nov-22 03:31N 43°25' E 004°57'0 0.0
2014-Nov-22 02:31N 43°25' E 004°57'0 0.0
2014-Nov-22 01:31N 43°25' E 004°57'0 0.0
2014-Nov-22 00:31N 43°25' E 004°57'0 0.0
2014-Nov-21 23:31N 43°25' E 004°57'0 0.0
2014-Nov-21 22:31N 43°25' E 004°57'0 0.0
2014-Nov-21 21:28N 43°25' E 004°57'0 0.0
2014-Nov-21 20:31N 43°25' E 004°57'0 0.0
2014-Nov-21 19:31N 43°25' E 004°57'1 1.3
2014-Nov-21 18:33N 43°23' E 004°57'1010.4
2014-Nov-21 17:33N 43°14' E 005°02'1210.1
2014-Nov-21 16:19N 43°03' E 004°52'1210.1
2014-Nov-21 15:09N 42°55' E 004°41'2810.5
2014-Nov-21 12:32N 42°35' E 004°14'10 9.7
2014-Nov-21 11:28N 42°28' E 004°04'1211.4
2014-Nov-21 10:25N 42°19' E 003°53'1210.0
2014-Nov-21 09:15N 42°11' E 003°43'910.5
2014-Nov-21 08:25N 42°04' E 003°35'  

Dump ship's entire track history